Time;durP1;ratioP1;P1;durP2;ratioP2;P2;SDS_P1;SDS_P2;PMS_P1;PMS_P2;Temp;Humidity;BMP_temperature;BMP_pressure;BME280_temperature;BME280_humidity;BME280_pressure;Samples;Min_cycle;Max_cycle;Signal;HPM_P1;HPM_P2
2022/01/03 00:01:19;;;;;;;;;2.00;2.00;;;;;11.07;79.76;99385.59;5091598;28;8884;-61
2022/01/03 00:03:47;;;;;;;;;4.00;3.25;;;;;11.07;79.95;99380.25;5090998;28;8842;-61
2022/01/03 00:06:15;;;;;;;;;1.00;1.00;;;;;11.07;80.25;99382.91;5091807;28;8860;-62
2022/01/03 00:08:43;;;;;;;;;0.75;0.75;;;;;11.07;80.48;99383.75;5090371;28;8841;-62
2022/01/03 00:11:10;;;;;;;;;1.00;1.00;;;;;11.07;80.11;99383.75;5090358;28;9582;-62
2022/01/03 00:13:38;;;;;;;;;1.00;1.00;;;;;11.06;80.00;99390.06;5091114;28;8862;-62
2022/01/03 00:16:06;;;;;;;;;1.00;1.00;;;;;11.05;80.19;99393.69;5090748;28;8858;-63
2022/01/03 00:18:34;;;;;;;;;0.50;0.50;;;;;11.03;80.23;99390.34;5090105;28;8850;-63
2022/01/03 00:21:01;;;;;;;;;0.50;0.50;;;;;11.02;79.76;99388.66;5087311;28;8834;-63
2022/01/03 00:23:29;;;;;;;;;4.00;1.00;;;;;11.02;80.31;99394.00;5090634;28;8842;-63
2022/01/03 00:25:57;;;;;;;;;1.00;1.00;;;;;11.02;80.46;99391.31;5090952;28;8854;-63
2022/01/03 00:28:25;;;;;;;;;1.50;1.50;;;;;11.02;80.21;99393.13;5091991;28;8842;-62
2022/01/03 00:30:52;;;;;;;;;2.00;2.00;;;;;11.02;79.99;99396.66;5090157;28;8846;-63
2022/01/03 00:33:20;;;;;;;;;2.00;1.00;;;;;11.02;80.14;99388.66;5089696;28;8873;-64
2022/01/03 00:35:48;;;;;;;;;3.00;1.00;;;;;11.02;79.74;99403.78;5090997;28;8841;-62
2022/01/03 00:38:16;;;;;;;;;1.00;1.00;;;;;11.01;79.98;99391.47;5090014;28;8853;-63
2022/01/03 00:40:43;;;;;;;;;0.50;0.50;;;;;11.02;79.97;99407.31;5091221;28;9674;-64
2022/01/03 00:43:11;;;;;;;;;1.00;1.00;;;;;11.02;79.44;99387.81;5090739;28;9658;-64
2022/01/03 00:45:39;;;;;;;;;2.00;2.00;;;;;11.04;79.27;99396.50;5090977;28;8854;-63
2022/01/03 00:48:07;;;;;;;;;0.50;0.50;;;;;11.03;79.25;99401.00;5091524;28;8876;-64
2022/01/03 00:50:35;;;;;;;;;3.00;1.00;;;;;11.02;79.32;99409.13;5090779;28;8836;-65
2022/01/03 00:53:02;;;;;;;;;0.00;0.00;;;;;10.90;79.90;99419.06;5089394;28;8850;-65
2022/01/03 00:55:31;;;;;;;;;0.00;0.00;;;;;10.56;80.35;99395.56;5090600;28;8841;-62
2022/01/03 00:57:59;;;;;;;;;0.75;0.75;;;;;10.24;81.18;99405.53;5089344;28;9273;-64
2022/01/03 01:00:26;;;;;;;;;2.50;1.00;;;;;10.03;81.33;99429.47;5090711;28;8862;-63
2022/01/03 01:02:54;;;;;;;;;1.00;1.00;;;;;9.89;81.85;99426.28;5090328;28;8980;-65
2022/01/03 01:05:23;;;;;;;;;3.00;1.00;;;;;9.79;82.38;99420.06;5090262;28;8833;-65
2022/01/03 01:07:51;;;;;;;;;3.50;3.50;;;;;9.74;82.74;99423.13;5090558;28;8857;-65
2022/01/03 01:10:18;;;;;;;;;1.00;0.75;;;;;9.69;83.08;99414.69;5090078;28;9654;-63
2022/01/03 01:12:47;;;;;;;;;1.00;1.00;;;;;9.67;82.62;99415.78;5088927;28;8846;-63
2022/01/03 01:15:15;;;;;;;;;1.50;1.00;;;;;9.67;83.03;99423.75;5091556;28;8860;-62
2022/01/03 01:17:43;;;;;;;;;1.50;1.00;;;;;9.66;83.22;99435.38;5089720;28;8916;-64
2022/01/03 01:20:12;;;;;;;;;0.25;0.25;;;;;9.64;82.96;99432.81;5090359;28;8838;-65
2022/01/03 01:22:39;;;;;;;;;1.50;0.50;;;;;9.61;82.91;99426.91;5089751;28;8872;-63
2022/01/03 01:25:25;;;;;;;;;1.00;1.00;;;;;9.59;83.09;99437.69;5090496;28;8838;-64
2022/01/03 01:27:53;;;;;;;;;0.50;0.50;;;;;9.57;82.98;99431.66;5089979;28;8896;-63
2022/01/03 01:30:21;;;;;;;;;0.00;0.00;;;;;9.54;83.36;99437.22;5089559;28;8976;-63
2022/01/03 01:32:49;;;;;;;;;3.00;3.00;;;;;9.51;83.23;99420.69;5089584;28;8885;-63
2022/01/03 01:35:17;;;;;;;;;0.25;0.25;;;;;9.48;83.30;99443.06;5091403;28;8849;-63
2022/01/03 01:37:44;;;;;;;;;0.50;0.50;;;;;9.48;83.47;99443.06;5089015;28;8845;-63
2022/01/03 01:40:12;;;;;;;;;0.75;0.75;;;;;9.47;83.57;99445.81;5089810;28;8853;-64
2022/01/03 01:42:40;;;;;;;;;1.00;1.00;;;;;9.47;83.63;99433.41;5090633;28;8850;-63
2022/01/03 01:45:09;;;;;;;;;2.00;1.00;;;;;9.47;83.76;99444.03;5090689;28;8833;-64
2022/01/03 01:47:37;;;;;;;;;1.75;0.75;;;;;9.47;83.53;99454.66;5090636;28;8842;-63
2022/01/03 01:50:04;;;;;;;;;0.00;0.00;;;;;9.45;83.50;99450.44;5090227;28;8956;-63
2022/01/03 01:52:32;;;;;;;;;2.25;0.00;;;;;9.46;83.87;99452.97;5090004;28;8967;-64
2022/01/03 01:55:00;;;;;;;;;0.00;0.00;;;;;9.51;83.29;99450.78;5091178;28;8862;-63
2022/01/03 01:57:28;;;;;;;;;0.50;0.50;;;;;9.57;83.30;99458.22;5090599;28;8862;-63
2022/01/03 01:59:56;;;;;;;;;0.00;0.00;;;;;9.60;83.23;99463.31;5089708;28;8864;-63
2022/01/03 02:02:25;;;;;;;;;0.00;0.00;;;;;9.65;83.24;99445.13;5090235;28;9475;-63
2022/01/03 02:04:53;;;;;;;;;0.00;0.00;;;;;9.76;82.63;99458.38;5090627;28;8893;-63
2022/01/03 02:07:21;;;;;;;;;0.50;0.00;;;;;9.83;82.90;99450.72;5090347;28;8862;-63
2022/01/03 02:09:49;;;;;;;;;1.00;1.00;;;;;9.90;82.69;99460.75;5091054;28;9680;-63
2022/01/03 02:12:16;;;;;;;;;0.00;0.00;;;;;9.98;82.05;99454.75;5090481;28;8856;-63
2022/01/03 02:14:44;;;;;;;;;0.50;0.25;;;;;10.04;81.86;99456.94;5090845;28;8910;-64
2022/01/03 02:17:12;;;;;;;;;0.00;0.00;;;;;10.07;81.75;99457.50;5090021;28;8850;-63
2022/01/03 02:19:40;;;;;;;;;2.00;2.00;;;;;10.11;81.94;99450.13;5091168;28;8988;-63
2022/01/03 02:22:10;;;;;;;;;0.00;0.00;;;;;10.15;81.75;99454.19;5091061;28;9535;-63
2022/01/03 02:24:38;;;;;;;;;0.00;0.00;;;;;10.18;81.59;99465.41;5090552;28;8833;-64
2022/01/03 02:27:06;;;;;;;;;1.00;1.00;;;;;10.21;81.40;99467.81;5090182;28;8972;-64
2022/01/03 02:29:34;;;;;;;;;0.00;0.00;;;;;10.24;81.32;99469.38;5095712;28;8986;-63
2022/01/03 02:32:01;;;;;;;;;1.00;0.50;;;;;10.27;81.13;99477.09;5095281;28;8850;-63
2022/01/03 02:34:30;;;;;;;;;2.00;2.00;;;;;10.28;80.90;99461.00;5095305;28;8845;-63
2022/01/03 02:36:58;;;;;;;;;2.50;2.50;;;;;10.31;81.01;99457.25;5094754;28;9524;-62
2022/01/03 02:39:26;;;;;;;;;1.00;1.00;;;;;10.33;80.73;99468.59;5095207;28;8853;-63
2022/01/03 02:41:53;;;;;;;;;0.00;0.00;;;;;10.33;80.79;99466.75;5093941;28;8868;-63
2022/01/03 02:44:21;;;;;;;;;0.00;0.00;;;;;10.35;80.84;99466.63;5094651;28;8864;-63
2022/01/03 02:46:48;;;;;;;;;0.00;0.00;;;;;10.34;80.61;99467.59;5093942;28;8849;-64
2022/01/03 02:49:17;;;;;;;;;2.25;0.75;;;;;10.35;80.43;99463.97;5094213;28;8826;-63
2022/01/03 02:51:46;;;;;;;;;0.25;0.00;;;;;10.35;80.49;99454.19;5094445;28;8818;-64
2022/01/03 02:54:13;;;;;;;;;0.50;0.50;;;;;10.37;80.60;99452.22;5094762;28;8854;-63
2022/01/03 02:56:41;;;;;;;;;1.00;1.00;;;;;10.38;80.37;99461.03;5094154;28;8862;-63
2022/01/03 02:59:09;;;;;;;;;0.25;0.25;;;;;10.40;80.08;99451.94;5093738;28;8976;-63
2022/01/03 03:01:36;;;;;;;;;0.25;0.25;;;;;10.40;79.93;99462.59;5094052;28;8984;-63
2022/01/03 03:04:04;;;;;;;;;0.00;0.00;;;;;10.39;80.13;99452.09;5095361;28;8864;-63
2022/01/03 03:06:32;;;;;;;;;0.00;0.00;;;;;10.39;79.85;99457.41;5094378;28;8861;-64
2022/01/03 03:09:04;;;;;;;;;1.00;1.00;;;;;10.39;79.99;99463.56;5093878;28;8866;-63
2022/01/03 03:11:32;;;;;;;;;1.00;1.00;;;;;10.39;80.12;99457.41;5094031;28;9587;-63
2022/01/03 03:14:00;;;;;;;;;0.75;0.75;;;;;10.39;79.99;99462.75;5093179;28;9578;-64
2022/01/03 03:16:27;;;;;;;;;0.75;0.00;;;;;10.34;79.91;99468.47;5092629;28;8857;-65
2022/01/03 03:18:55;;;;;;;;;0.00;0.00;;;;;10.34;79.87;99464.94;5093372;28;8854;-64
2022/01/03 03:21:23;;;;;;;;;1.00;1.00;;;;;10.33;80.24;99469.41;5093686;28;10000;-64
2022/01/03 03:23:51;;;;;;;;;0.75;0.75;;;;;10.30;80.02;99480.34;5093779;28;8845;-64
2022/01/03 03:26:18;;;;;;;;;0.00;0.00;;;;;10.26;79.87;99478.91;5093267;28;8880;-64
2022/01/03 03:28:46;;;;;;;;;0.00;0.00;;;;;10.27;79.57;99477.09;5092852;28;8880;-63
2022/01/03 03:31:14;;;;;;;;;0.75;0.75;;;;;10.29;79.61;99489.28;5093536;28;10008;-65
2022/01/03 03:33:42;;;;;;;;;0.50;0.50;;;;;10.30;79.79;99485.66;5092759;28;8842;-67
2022/01/03 03:36:10;;;;;;;;;0.00;0.00;;;;;10.34;79.76;99484.44;5092187;28;8873;-64
2022/01/03 03:38:37;;;;;;;;;0.75;0.00;;;;;10.35;79.64;99495.91;5093595;28;8841;-64
2022/01/03 03:41:05;;;;;;;;;1.00;1.00;;;;;10.37;79.51;99486.81;5093174;28;8866;-65
2022/01/03 03:43:33;;;;;;;;;0.50;0.00;;;;;10.37;79.13;99489.47;5092861;28;8972;-64
2022/01/03 03:46:00;;;;;;;;;0.50;0.00;;;;;10.37;79.22;99486.81;5092952;28;8826;-64
2022/01/03 03:48:28;;;;;;;;;1.00;1.00;;;;;10.38;79.21;99490.31;5093130;28;8830;-65
2022/01/03 03:50:56;;;;;;;;;0.00;0.00;;;;;10.38;79.11;99496.47;5093032;28;9555;-63
2022/01/03 03:53:26;;;;;;;;;1.50;1.50;;;;;10.37;79.08;99496.59;5092263;28;8875;-64
2022/01/03 03:55:53;;;;;;;;;0.00;0.00;;;;;10.36;79.15;99487.78;5091955;28;8834;-63
2022/01/03 03:58:21;;;;;;;;;0.00;0.00;;;;;10.31;79.58;99475.88;5092686;28;8873;-63
2022/01/03 04:00:49;;;;;;;;;0.75;0.75;;;;;10.28;79.02;99486.75;5093348;28;8992;-63
2022/01/03 04:03:36;;;;;;;;;1.00;1.00;;;;;10.26;79.22;99478.06;5093150;28;8837;-64
2022/01/03 04:06:04;;;;;;;;;0.00;0.00;;;;;10.26;79.46;99489.53;5093388;28;8841;-63
2022/01/03 04:08:32;;;;;;;;;0.00;0.00;;;;;10.25;79.46;99481.72;5093151;28;8960;-63
2022/01/03 04:11:00;;;;;;;;;0.00;0.00;;;;;10.24;79.56;99499.47;5092964;28;8984;-63
2022/01/03 04:13:27;;;;;;;;;0.00;0.00;;;;;10.25;79.18;99471.06;5091781;28;8850;-63
2022/01/03 04:15:55;;;;;;;;;0.25;0.00;;;;;10.24;79.26;99478.19;5092797;28;8881;-64
2022/01/03 04:18:23;;;;;;;;;0.00;0.00;;;;;10.25;78.78;99481.72;5091986;28;8838;-63
2022/01/03 04:20:51;;;;;;;;;0.75;0.00;;;;;10.23;79.07;99476.50;5092080;28;8939;-64
2022/01/03 04:23:18;;;;;;;;;0.75;0.75;;;;;10.22;79.20;99481.94;5092088;28;8838;-63
2022/01/03 04:25:46;;;;;;;;;0.00;0.00;;;;;10.22;78.90;99493.44;5092480;28;8980;-64
2022/01/03 04:28:14;;;;;;;;;0.00;0.00;;;;;10.22;79.13;99487.28;5092576;28;8993;-64
2022/01/03 04:30:42;;;;;;;;;1.00;1.00;;;;;10.24;79.17;99501.31;5092763;28;8942;-64
2022/01/03 04:33:09;;;;;;;;;0.25;0.00;;;;;10.26;78.83;99499.34;5091982;28;8961;-64
2022/01/03 04:35:37;;;;;;;;;0.00;0.00;;;;;10.27;78.33;99499.22;5092486;28;8849;-64
2022/01/03 04:38:05;;;;;;;;;0.00;0.00;;;;;10.30;78.38;99495.44;5091797;28;8989;-64
2022/01/03 04:40:33;;;;;;;;;0.00;0.00;;;;;10.32;78.72;99498.84;5091657;28;9066;-64
2022/01/03 04:43:01;;;;;;;;;0.00;0.00;;;;;10.32;78.51;99498.84;5091629;28;8849;-64
2022/01/03 04:45:29;;;;;;;;;0.00;0.00;;;;;10.31;78.42;99497.97;5092182;28;8845;-64
2022/01/03 04:47:56;;;;;;;;;1.00;0.00;;;;;10.32;78.33;99494.34;5091561;28;8862;-64
2022/01/03 04:50:24;;;;;;;;;0.50;0.50;;;;;10.30;78.71;99488.31;5092433;28;8853;-64
2022/01/03 04:52:52;;;;;;;;;0.75;0.75;;;;;10.30;78.53;99496.31;5091585;28;8976;-65
2022/01/03 04:55:20;;;;;;;;;2.50;1.00;;;;;10.29;78.25;99483.97;5091190;28;9516;-64
2022/01/03 04:57:47;;;;;;;;;0.25;0.25;;;;;10.27;78.43;99485.94;5090328;28;8884;-65
2022/01/03 05:00:15;;;;;;;;;0.75;0.75;;;;;10.24;78.71;99482.69;5092282;28;8853;-64
2022/01/03 05:02:43;;;;;;;;;2.50;2.50;;;;;10.18;78.29;99489.34;5091939;28;8850;-65
2022/01/03 05:05:11;;;;;;;;;0.00;0.00;;;;;10.17;79.22;99481.53;5089645;28;8830;-64
2022/01/03 05:07:39;;;;;;;;;0.00;0.00;;;;;10.15;78.99;99486.09;5090082;28;8826;-66
2022/01/03 05:10:07;;;;;;;;;1.50;0.75;;;;;10.15;78.63;99476.31;5092538;28;8852;-65
2022/01/03 05:12:34;;;;;;;;;0.50;0.00;;;;;10.16;78.58;99483.31;5090987;28;8964;-65
2022/01/03 05:15:02;;;;;;;;;1.00;0.50;;;;;10.17;78.83;99486.84;5090963;28;8875;-64
2022/01/03 05:17:31;;;;;;;;;1.00;1.00;;;;;10.16;78.78;99475.34;5091161;28;8858;-64
2022/01/03 05:19:59;;;;;;;;;1.00;0.00;;;;;10.15;78.81;99481.66;5091436;28;8849;-64
2022/01/03 05:22:27;;;;;;;;;0.50;0.00;;;;;10.13;78.70;99488.91;5090497;28;8842;-64
2022/01/03 05:24:55;;;;;;;;;3.00;2.50;;;;;10.12;78.98;99489.03;5091617;28;8931;-65
2022/01/03 05:27:22;;;;;;;;;0.00;0.00;;;;;10.12;79.02;99481.91;5090790;28;8861;-65
2022/01/03 05:29:50;;;;;;;;;0.00;0.00;;;;;10.13;78.66;99486.25;5089452;28;8953;-64
2022/01/03 05:32:18;;;;;;;;;1.25;0.75;;;;;10.13;78.52;99488.91;5088731;28;8866;-65
2022/01/03 05:34:46;;;;;;;;;0.00;0.00;;;;;10.14;78.52;99484.41;5090012;28;8948;-66
2022/01/03 05:37:13;;;;;;;;;0.00;0.00;;;;;10.14;78.38;99489.75;5090115;28;8973;-65
2022/01/03 05:39:41;;;;;;;;;0.50;0.50;;;;;10.14;78.71;99481.75;5091104;28;8854;-64
2022/01/03 05:42:09;;;;;;;;;1.00;0.75;;;;;10.16;78.59;99493.97;5088873;28;9446;-64
2022/01/03 05:44:37;;;;;;;;;0.50;0.00;;;;;10.20;78.35;99490.09;5090383;28;8834;-64
2022/01/03 05:47:04;;;;;;;;;1.50;1.00;;;;;10.21;78.16;99475.81;5089264;28;9012;-64
2022/01/03 05:49:32;;;;;;;;;0.00;0.00;;;;;10.22;78.37;99466.84;5088657;28;8854;-64
2022/01/03 05:52:00;;;;;;;;;1.00;1.00;;;;;10.23;78.06;99487.16;5088390;28;8818;-65
2022/01/03 05:54:27;;;;;;;;;0.00;0.00;;;;;10.24;78.24;99475.53;5088192;28;8850;-65
2022/01/03 05:56:56;;;;;;;;;0.00;0.00;;;;;10.26;78.23;99484.22;5090248;28;8968;-66
2022/01/03 05:59:23;;;;;;;;;1.00;1.00;;;;;10.28;78.06;99484.09;5089588;28;8853;-64
2022/01/03 06:01:52;;;;;;;;;0.00;0.00;;;;;10.29;78.07;99481.31;5089948;28;8850;-65
2022/01/03 06:04:22;;;;;;;;;0.00;0.00;;;;;10.31;77.93;99476.69;5093702;28;9401;-65
2022/01/03 06:06:59;;;;;;;;;0.50;0.00;;;;;10.33;78.05;99474.72;5094055;28;8850;-64
2022/01/03 06:09:26;;;;;;;;;0.50;0.00;;;;;10.33;78.27;99472.06;5095014;28;8851;-64
2022/01/03 06:11:54;;;;;;;;;0.00;0.00;;;;;10.34;77.46;99459.63;5092741;28;8838;-65
2022/01/03 06:14:22;;;;;;;;;0.00;0.00;;;;;10.35;77.83;99470.16;5094300;28;8852;-64
2022/01/03 06:16:50;;;;;;;;;0.00;0.00;;;;;10.35;77.72;99459.50;5092511;28;8842;-64
2022/01/03 06:19:18;;;;;;;;;0.75;0.75;;;;;10.36;77.39;99463.84;5091350;28;8872;-63
2022/01/03 06:21:46;;;;;;;;;2.00;2.00;;;;;10.36;77.52;99453.19;5091999;28;8828;-63
2022/01/03 06:24:13;;;;;;;;;1.00;0.00;;;;;10.36;77.80;99463.84;5091611;28;8836;-64
2022/01/03 06:26:41;;;;;;;;;0.00;0.00;;;;;10.36;77.84;99455.84;5091894;28;8888;-64
2022/01/03 06:29:09;;;;;;;;;0.00;0.00;;;;;10.35;77.54;99451.53;5090411;28;8849;-64
2022/01/03 06:31:37;;;;;;;;;0.00;0.00;;;;;10.35;77.48;99448.84;5091093;28;9095;-63
2022/01/03 06:34:05;;;;;;;;;1.25;1.25;;;;;10.35;77.78;99456.84;5091375;28;8964;-66
2022/01/03 06:36:32;;;;;;;;;0.00;0.00;;;;;10.34;77.88;99443.66;5091488;28;8854;-65
2022/01/03 06:39:00;;;;;;;;;1.50;0.75;;;;;10.35;77.89;99445.34;5090619;28;8928;-64
2022/01/03 06:41:28;;;;;;;;;0.75;0.75;;;;;10.35;77.46;99446.19;5090615;28;8850;-66
2022/01/03 06:43:56;;;;;;;;;1.00;1.00;;;;;10.36;77.47;99445.22;5089631;28;8940;-64
2022/01/03 06:46:24;;;;;;;;;1.75;1.75;;;;;10.38;77.22;99440.59;5089645;28;9491;-64
2022/01/03 06:48:51;;;;;;;;;3.00;0.00;;;;;10.39;77.68;99444.94;5088672;28;8880;-65
2022/01/03 06:51:19;;;;;;;;;0.00;0.00;;;;;10.39;77.19;99442.28;5089424;28;8849;-64
2022/01/03 06:53:47;;;;;;;;;2.50;0.75;;;;;10.40;77.45;99453.78;5088977;28;8980;-65
2022/01/03 06:56:15;;;;;;;;;0.00;0.00;;;;;10.40;76.80;99449.28;5089253;28;8900;-64
2022/01/03 06:58:43;;;;;;;;;0.50;0.50;;;;;10.41;76.98;99455.47;5088644;28;8880;-64
2022/01/03 07:01:11;;;;;;;;;1.50;0.50;;;;;10.42;77.56;99450.00;5088206;28;8830;-64
2022/01/03 07:03:39;;;;;;;;;0.00;0.00;;;;;10.42;76.98;99452.69;5089835;28;8850;-64
2022/01/03 07:06:07;;;;;;;;;1.50;1.00;;;;;10.42;77.26;99451.81;5089412;28;8884;-64
2022/01/03 07:08:34;;;;;;;;;0.25;0.00;;;;;10.40;77.52;99446.63;5087943;28;8841;-64
2022/01/03 07:11:02;;;;;;;;;0.25;0.00;;;;;10.42;77.50;99447.34;5087543;28;8873;-65
2022/01/03 07:13:40;;;;;;;;;0.00;0.00;;;;;10.43;77.36;99457.00;5087588;28;8857;-63
2022/01/03 07:19:00;;;;;;;;;0.00;0.00;;;;;10.45;77.49;99460.38;5086940;28;8880;-64
2022/01/03 07:21:28;;;;;;;;;0.00;0.00;;;;;10.44;77.19;99456.03;5087441;28;8842;-63
2022/01/03 07:23:55;;;;;;;;;0.50;0.50;;;;;10.44;76.96;99464.03;5089869;28;8850;-65
2022/01/03 07:26:23;;;;;;;;;1.50;1.50;;;;;10.45;77.44;99460.38;5084479;28;8887;-64
2022/01/03 07:28:51;;;;;;;;;3.00;1.50;;;;;10.44;77.50;99448.06;5087568;28;9711;-64
2022/01/03 07:31:18;;;;;;;;;3.00;1.00;;;;;10.45;77.28;99462.19;5088304;28;9956;-64
2022/01/03 07:33:47;;;;;;;;;0.50;0.50;;;;;10.43;77.41;99465.00;5088923;28;8853;-63
2022/01/03 07:36:15;;;;;;;;;0.75;0.75;;;;;10.45;77.47;99457.72;5088154;28;8992;-64
2022/01/03 07:38:46;;;;;;;;;0.25;0.25;;;;;10.46;77.49;99459.41;5087978;28;8864;-63
2022/01/03 07:41:16;;;;;;;;;1.00;1.00;;;;;10.47;77.22;99461.09;5084931;28;9539;-64
2022/01/03 07:43:44;;;;;;;;;1.00;1.00;;;;;10.45;77.19;99452.41;5088459;28;9511;-64
2022/01/03 07:46:11;;;;;;;;;0.00;0.00;;;;;10.35;77.25;99454.19;5088168;28;8826;-64
2022/01/03 07:48:42;;;;;;;;;2.75;1.00;;;;;10.24;77.81;99459.56;5087362;28;8854;-64
2022/01/03 07:51:10;;;;;;;;;0.50;0.50;;;;;10.19;78.03;99456.47;5085835;28;9535;-63
2022/01/03 07:53:38;;;;;;;;;1.50;1.00;;;;;10.20;77.71;99444.00;5087174;28;8854;-64
2022/01/03 07:56:05;;;;;;;;;3.00;1.00;;;;;10.21;77.65;99449.19;5086392;28;8891;-64
2022/01/03 07:58:33;;;;;;;;;0.75;0.75;;;;;10.24;77.59;99440.94;5084852;28;9508;-64
2022/01/03 08:01:01;;;;;;;;;2.00;2.00;;;;;10.27;78.15;99438.03;5085586;28;8870;-63
2022/01/03 08:03:29;;;;;;;;;1.50;1.25;;;;;10.28;77.49;99434.38;5085526;28;8838;-64
2022/01/03 08:06:06;;;;;;;;;2.00;2.00;;;;;10.33;77.59;99441.97;5085002;28;8850;-63
2022/01/03 08:08:35;;;;;;;;;1.00;1.00;;;;;10.33;77.48;99442.78;5084821;28;8964;-64
2022/01/03 08:11:03;;;;;;;;;4.00;3.25;;;;;10.35;78.02;99448.84;5084001;28;8858;-64
2022/01/03 08:13:30;;;;;;;;;10.00;9.00;;;;;10.37;77.36;99438.91;5085241;28;8980;-63
2022/01/03 08:15:58;;;;;;;;;3.00;2.00;;;;;10.40;77.54;99432.47;5085726;28;8866;-63
2022/01/03 08:18:26;;;;;;;;;1.00;1.00;;;;;10.43;77.25;99438.38;5087257;28;8968;-64
2022/01/03 08:20:56;;;;;;;;;1.00;1.00;;;;;10.45;77.53;99436.41;5085283;28;8857;-64
2022/01/03 08:23:24;;;;;;;;;0.25;0.25;;;;;10.47;77.51;99437.13;5084881;28;8976;-64
2022/01/03 08:25:52;;;;;;;;;3.75;3.00;;;;;10.49;76.87;99424.53;5085661;28;8842;-63
2022/01/03 08:28:19;;;;;;;;;1.00;1.00;;;;;10.38;77.54;99423.78;5084741;28;9931;-64
2022/01/03 08:30:47;;;;;;;;;1.00;1.00;;;;;10.17;78.02;99426.47;5085939;28;8992;-64
2022/01/03 08:33:15;;;;;;;;;3.50;2.00;;;;;10.05;78.77;99435.53;5086605;28;8852;-64
2022/01/03 08:35:43;;;;;;;;;0.50;0.50;;;;;9.94;79.06;99432.06;5062892;28;8889;-63
2022/01/03 08:38:10;;;;;;;;;0.50;0.50;;;;;9.87;79.29;99429.06;5063107;28;8848;-64
2022/01/03 08:40:38;;;;;;;;;1.50;0.50;;;;;9.80;79.26;99427.06;5062571;28;8888;-64
2022/01/03 08:43:06;;;;;;;;;0.50;0.50;;;;;9.73;79.70;99436.53;5064758;28;10043;-65
2022/01/03 08:45:34;;;;;;;;;1.00;1.00;;;;;9.68;79.59;99425.44;5064998;28;8974;-63
2022/01/03 08:48:06;;;;;;;;;0.25;0.25;;;;;9.66;79.74;99430.88;5064407;28;8860;-63
2022/01/03 08:50:34;;;;;;;;;0.50;0.25;;;;;9.66;80.15;99424.72;5061998;28;8959;-63
2022/01/03 08:53:04;;;;;;;;;1.00;1.00;;;;;9.69;79.52;99433.28;5062460;28;8852;-63
2022/01/03 08:55:32;;;;;;;;;1.00;0.50;;;;;9.75;79.61;99439.91;5061807;28;8860;-64
2022/01/03 08:57:59;;;;;;;;;3.00;1.00;;;;;9.83;79.30;99432.97;5063036;28;8863;-64
2022/01/03 09:00:28;;;;;;;;;1.00;1.00;;;;;9.91;79.14;99438.47;5061619;28;8931;-64
2022/01/03 09:02:56;;;;;;;;;1.00;1.00;;;;;9.98;78.96;99437.00;5077713;28;8845;-64
2022/01/03 09:05:24;;;;;;;;;2.50;2.25;;;;;10.07;78.94;99417.63;5084826;28;8854;-64
2022/01/03 09:07:52;;;;;;;;;3.25;1.75;;;;;10.15;78.42;99412.47;5085610;28;9507;-63
2022/01/03 09:10:19;;;;;;;;;1.00;1.00;;;;;10.22;78.28;99413.63;5083412;28;8846;-64
2022/01/03 09:12:47;;;;;;;;;1.00;1.00;;;;;10.22;78.01;99410.09;5085312;28;8873;-63
2022/01/03 09:15:15;;;;;;;;;0.50;0.50;;;;;10.14;78.28;99416.13;5082775;28;8838;-63
2022/01/03 09:17:43;;;;;;;;;0.25;0.25;;;;;10.11;78.60;99423.50;5080392;28;9004;-63
2022/01/03 09:20:11;;;;;;;;;0.75;0.75;;;;;10.15;78.56;99419.59;5082429;28;8872;-64
2022/01/03 09:22:43;;;;;;;;;0.75;0.75;;;;;10.21;78.35;99411.94;5081426;28;8838;-62
2022/01/03 09:30:41;;;;;;;;;0.00;0.00;;;;;10.42;77.95;99418.06;5084511;28;8961;-63
2022/01/03 09:33:09;;;;;;;;;1.00;1.00;;;;;10.46;77.83;99419.47;5082995;28;8846;-63
2022/01/03 09:35:37;;;;;;;;;2.00;2.00;;;;;10.47;77.89;99429.13;5080864;28;8860;-63
2022/01/03 09:38:05;;;;;;;;;3.25;3.25;;;;;10.36;78.19;99415.09;5080850;28;8850;-64
2022/01/03 09:40:34;;;;;;;;;4.50;4.50;;;;;10.22;78.47;99407.44;5080880;28;8965;-64
2022/01/03 09:43:03;;;;;;;;;6.00;4.00;;;;;10.08;78.81;99411.31;5082245;28;8880;-64
2022/01/03 09:45:32;;;;;;;;;5.25;3.75;;;;;10.03;78.88;99407.38;5082469;28;8842;-64
2022/01/03 09:48:00;;;;;;;;;3.00;3.00;;;;;10.02;79.38;99410.97;5081093;28;8854;-63
2022/01/03 09:50:27;;;;;;;;;2.50;1.00;;;;;10.03;79.17;99402.06;5081448;28;8942;-63
2022/01/03 09:52:55;;;;;;;;;3.75;3.00;;;;;10.11;79.19;99410.22;5081808;28;8849;-63
2022/01/03 09:55:23;;;;;;;;;0.75;0.75;;;;;10.20;78.82;99412.94;5081923;28;9677;-63
2022/01/03 09:57:51;;;;;;;;;1.00;1.00;;;;;10.30;78.82;99410.28;5083403;28;8868;-64
2022/01/03 10:00:22;;;;;;;;;3.00;1.00;;;;;10.39;78.35;99422.81;5082461;28;9011;-63
2022/01/03 10:02:50;;;;;;;;;3.75;3.25;;;;;10.51;78.35;99419.91;5081737;28;8838;-63
2022/01/03 10:05:18;;;;;;;;;1.00;0.50;;;;;10.61;77.95;99404.81;5082790;28;8837;-63
2022/01/03 10:07:45;;;;;;;;;1.00;1.00;;;;;10.74;77.61;99417.88;5082254;28;8887;-63
2022/01/03 10:10:14;;;;;;;;;3.00;3.00;;;;;10.84;77.30;99416.94;5082459;28;8853;-64
2022/01/03 10:12:42;;;;;;;;;3.00;3.00;;;;;10.93;77.14;99404.63;5084077;28;8849;-63
2022/01/03 10:15:10;;;;;;;;;5.50;5.50;;;;;11.00;77.16;99406.59;5080030;28;8865;-63
2022/01/03 10:17:38;;;;;;;;;3.50;3.00;;;;;11.06;76.90;99389.22;5079431;28;8854;-63
2022/01/03 10:20:06;;;;;;;;;3.00;2.00;;;;;11.08;76.52;99398.75;5081386;28;8838;-64
2022/01/03 10:22:33;;;;;;;;;1.00;0.50;;;;;11.07;76.71;99401.56;5081626;28;8860;-64
2022/01/03 10:25:01;;;;;;;;;1.00;1.00;;;;;11.05;76.64;99409.69;5083353;28;8858;-63
2022/01/03 10:27:29;;;;;;;;;2.00;1.50;;;;;11.02;77.31;99399.31;5082643;28;8861;-63
2022/01/03 10:29:57;;;;;;;;;1.00;1.00;;;;;11.01;77.26;99408.25;5083022;28;9637;-64
2022/01/03 10:32:25;;;;;;;;;1.00;1.00;;;;;11.02;76.99;99394.00;5082230;28;8854;-63
2022/01/03 10:34:52;;;;;;;;;1.50;1.50;;;;;11.07;76.85;99396.25;5081047;28;8838;-63
2022/01/03 10:37:20;;;;;;;;;3.00;3.00;;;;;11.14;76.82;99384.03;5082220;28;9571;-64
2022/01/03 10:39:48;;;;;;;;;1.00;1.00;;;;;11.22;76.52;99382.34;5080784;28;8849;-64
2022/01/03 10:42:16;;;;;;;;;1.00;1.00;;;;;11.29;76.40;99369.31;5082626;28;8854;-63
2022/01/03 10:44:44;;;;;;;;;0.50;0.00;;;;;11.32;76.38;99364.56;5083757;28;8856;-63
2022/01/03 10:47:13;;;;;;;;;4.00;3.50;;;;;11.39;75.70;99357.66;5080419;28;8833;-63
2022/01/03 10:49:42;;;;;;;;;3.50;1.00;;;;;11.43;75.80;99360.88;5079941;28;8852;-63
2022/01/03 10:52:09;;;;;;;;;0.50;0.00;;;;;11.44;75.52;99362.59;5085031;28;8984;-63
2022/01/03 10:54:37;;;;;;;;;0.00;0.00;;;;;11.42;75.65;99368.03;5085409;28;8857;-64
2022/01/03 10:57:06;;;;;;;;;0.00;0.00;;;;;11.44;75.79;99358.06;5078836;28;8862;-63
2022/01/03 10:59:35;;;;;;;;;1.00;1.00;;;;;11.62;74.89;99364.41;5081175;28;8850;-63
2022/01/03 11:02:03;;;;;;;;;1.00;1.00;;;;;11.99;73.78;99349.28;5081029;28;8850;-63
2022/01/03 11:04:35;;;;;;;;;1.50;1.00;;;;;12.22;73.44;99327.44;5081359;28;8849;-63
2022/01/03 11:07:03;;;;;;;;;0.50;0.00;;;;;12.38;72.70;99318.78;5081634;28;9095;-64
2022/01/03 11:12:16;;;;;;;;;1.50;0.50;;;;;13.39;70.25;99334.41;5084705;28;9007;-63
2022/01/03 11:14:43;;;;;;;;;1.00;0.50;;;;;13.36;70.83;99332.03;5079831;28;8849;-63
2022/01/03 11:17:12;;;;;;;;;0.50;0.00;;;;;13.15;71.22;99330.66;5082829;28;8858;-63
2022/01/03 11:19:39;;;;;;;;;1.50;0.00;;;;;12.82;71.67;99324.13;5083213;28;8850;-62
2022/01/03 11:22:07;;;;;;;;;0.50;0.50;;;;;12.62;72.07;99327.09;5083747;28;8908;-62
2022/01/03 11:24:35;;;;;;;;;0.50;0.50;;;;;12.49;72.62;99337.28;5084352;28;8865;-63
2022/01/03 11:27:03;;;;;;;;;3.00;3.00;;;;;12.35;73.12;99335.09;5082546;28;8881;-63
2022/01/03 11:29:31;;;;;;;;;1.00;1.00;;;;;12.24;73.75;99337.97;5080998;28;8854;-63
2022/01/03 11:32:00;;;;;;;;;0.25;0.00;;;;;12.15;73.59;99339.69;5080586;28;8968;-65
2022/01/03 11:34:28;;;;;;;;;0.00;0.00;;;;;12.07;73.83;99330.75;5078714;28;8860;-63
2022/01/03 11:36:57;;;;;;;;;2.00;1.00;;;;;11.98;73.92;99333.44;5076761;28;8873;-64
2022/01/03 11:39:25;;;;;;;;;0.00;0.00;;;;;11.89;73.93;99335.13;5081149;28;9949;-65
2022/01/03 11:41:53;;;;;;;;;1.00;1.00;;;;;11.83;74.01;99338.38;5083705;28;8850;-63
2022/01/03 11:44:21;;;;;;;;;1.00;1.00;;;;;11.78;73.93;99330.00;5084162;28;8935;-64
2022/01/03 11:46:51;;;;;;;;;0.00;0.00;;;;;11.75;73.95;99313.44;5083293;28;9313;-63
2022/01/03 11:49:19;;;;;;;;;2.50;2.50;;;;;11.70;73.92;99313.88;5083772;28;8850;-63
2022/01/03 11:51:47;;;;;;;;;0.50;0.50;;;;;11.69;74.37;99312.16;5077868;28;8864;-64
2022/01/03 11:54:16;;;;;;;;;3.50;1.00;;;;;11.70;73.74;99299.69;5080998;28;8858;-64
2022/01/03 11:56:49;;;;;;;;;1.50;1.00;;;;;11.69;73.94;99288.16;5081000;28;8876;-64
2022/01/03 12:03:36;;;;;;;;;1.00;1.00;;;;;11.70;73.57;99292.53;5084857;28;8999;-64